sensor_id;sensor_type;location;lat;lon;timestamp;pressure;altitude;pressure_sealevel;temperature;humidity
6218;BME280;3142;48.206;11.550;2023-07-08T00:00:41;95945.19;;;23.07;42.03
6218;BME280;3142;48.206;11.550;2023-07-08T00:03:08;95934.78;;;23.00;42.21
6218;BME280;3142;48.206;11.550;2023-07-08T00:05:35;95937.19;;;23.01;42.22
6218;BME280;3142;48.206;11.550;2023-07-08T00:08:02;95929.44;;;23.00;42.21
6218;BME280;3142;48.206;11.550;2023-07-08T00:10:29;95931.63;;;22.93;42.75
6218;BME280;3142;48.206;11.550;2023-07-08T00:12:58;95932.44;;;22.93;42.42
6218;BME280;3142;48.206;11.550;2023-07-08T00:15:26;95929.50;;;22.90;42.70
6218;BME280;3142;48.206;11.550;2023-07-08T00:17:53;95928.97;;;22.88;42.70
6218;BME280;3142;48.206;11.550;2023-07-08T00:20:22;95923.38;;;22.89;42.90
6218;BME280;3142;48.206;11.550;2023-07-08T00:22:50;95917.75;;;22.86;43.17
6218;BME280;3142;48.206;11.550;2023-07-08T00:25:17;95918.81;;;22.80;43.14
6218;BME280;3142;48.206;11.550;2023-07-08T00:27:44;95917.78;;;22.75;42.90
6218;BME280;3142;48.206;11.550;2023-07-08T00:30:21;95920.97;;;22.72;43.43
6218;BME280;3142;48.206;11.550;2023-07-08T00:32:48;95930.56;;;22.73;43.20
6218;BME280;3142;48.206;11.550;2023-07-08T00:35:20;95925.25;;;22.68;43.16
6218;BME280;3142;48.206;11.550;2023-07-08T00:37:47;95926.56;;;22.71;43.31
6218;BME280;3142;48.206;11.550;2023-07-08T00:40:15;95925.25;;;22.68;43.48
6218;BME280;3142;48.206;11.550;2023-07-08T00:42:43;95922.06;;;22.66;43.58
6218;BME280;3142;48.206;11.550;2023-07-08T00:45:16;95919.66;;;22.60;43.52
6218;BME280;3142;48.206;11.550;2023-07-08T00:47:46;95922.06;;;22.56;43.49
6218;BME280;3142;48.206;11.550;2023-07-08T00:50:15;95925.28;;;22.53;43.69
6218;BME280;3142;48.206;11.550;2023-07-08T00:52:42;95920.75;;;22.54;43.48
6218;BME280;3142;48.206;11.550;2023-07-08T00:55:10;95917.84;;;22.50;43.78
6218;BME280;3142;48.206;11.550;2023-07-08T00:57:39;95927.69;;;22.44;43.63
6218;BME280;3142;48.206;11.550;2023-07-08T01:00:10;95923.19;;;22.35;44.11
6218;BME280;3142;48.206;11.550;2023-07-08T01:02:42;95929.31;;;22.20;44.35
6218;BME280;3142;48.206;11.550;2023-07-08T01:05:14;95928.53;;;22.09;44.45
6218;BME280;3142;48.206;11.550;2023-07-08T01:07:44;95918.63;;;22.05;44.59
6218;BME280;3142;48.206;11.550;2023-07-08T01:10:14;95920.25;;;22.06;44.62
6218;BME280;3142;48.206;11.550;2023-07-08T01:12:46;95916.78;;;22.05;44.65
6218;BME280;3142;48.206;11.550;2023-07-08T01:15:14;95919.75;;;22.09;44.74
6218;BME280;3142;48.206;11.550;2023-07-08T01:17:42;95918.13;;;22.13;44.43
6218;BME280;3142;48.206;11.550;2023-07-08T01:20:10;95914.66;;;22.12;44.65
6218;BME280;3142;48.206;11.550;2023-07-08T01:22:40;95920.78;;;22.13;44.69
6218;BME280;3142;48.206;11.550;2023-07-08T01:25:08;95918.66;;;22.20;44.53
6218;BME280;3142;48.206;11.550;2023-07-08T01:27:37;95925.34;;;22.23;44.59
6218;BME280;3142;48.206;11.550;2023-07-08T01:30:06;95932.81;;;22.21;44.61
6218;BME280;3142;48.206;11.550;2023-07-08T01:32:34;95923.19;;;22.14;44.85
6218;BME280;3142;48.206;11.550;2023-07-08T01:35:04;95929.31;;;22.15;45.21
6218;BME280;3142;48.206;11.550;2023-07-08T01:37:34;95928.00;;;22.12;45.04
6218;BME280;3142;48.206;11.550;2023-07-08T01:40:19;95932.78;;;22.10;45.25
6218;BME280;3142;48.206;11.550;2023-07-08T01:42:49;95940.53;;;22.12;45.28
6218;BME280;3142;48.206;11.550;2023-07-08T01:45:18;95940.00;;;22.10;45.47
6218;BME280;3142;48.206;11.550;2023-07-08T01:47:47;95940.78;;;22.15;45.52
6218;BME280;3142;48.206;11.550;2023-07-08T01:50:14;95934.94;;;22.08;45.90
6218;BME280;3142;48.206;11.550;2023-07-08T01:52:41;95930.66;;;22.07;45.86
6218;BME280;3142;48.206;11.550;2023-07-08T01:55:08;95926.38;;;22.06;45.90
6218;BME280;3142;48.206;11.550;2023-07-08T01:57:36;95919.97;;;22.02;45.86
6218;BME280;3142;48.206;11.550;2023-07-08T02:00:03;95921.84;;;21.97;46.01
6218;BME280;3142;48.206;11.550;2023-07-08T02:02:29;95922.09;;;21.90;45.98
6218;BME280;3142;48.206;11.550;2023-07-08T02:04:56;95914.84;;;21.65;46.49
6218;BME280;3142;48.206;11.550;2023-07-08T02:07:22;95922.06;;;21.54;46.61
6218;BME280;3142;48.206;11.550;2023-07-08T02:09:48;95921.22;;;21.44;46.94
6218;BME280;3142;48.206;11.550;2023-07-08T02:12:15;95922.53;;;21.36;47.15
6218;BME280;3142;48.206;11.550;2023-07-08T02:14:43;95922.78;;;21.29;47.12
6218;BME280;3142;48.206;11.550;2023-07-08T02:17:09;95915.00;;;21.23;47.42
6218;BME280;3142;48.206;11.550;2023-07-08T02:19:36;95919.25;;;21.24;47.28
6218;BME280;3142;48.206;11.550;2023-07-08T02:22:02;95915.59;;;21.35;47.30
6218;BME280;3142;48.206;11.550;2023-07-08T02:24:29;95911.38;;;21.39;47.11
6218;BME280;3142;48.206;11.550;2023-07-08T02:26:56;95916.69;;;21.49;46.88
6218;BME280;3142;48.206;11.550;2023-07-08T02:29:22;95916.16;;;21.42;47.25
6218;BME280;3142;48.206;11.550;2023-07-08T02:31:50;95916.97;;;21.43;47.62
6218;BME280;3142;48.206;11.550;2023-07-08T02:34:17;95914.28;;;21.48;47.24
6218;BME280;3142;48.206;11.550;2023-07-08T02:36:43;95909.50;;;21.45;47.64
6218;BME280;3142;48.206;11.550;2023-07-08T02:39:10;95908.44;;;21.46;47.51
6218;BME280;3142;48.206;11.550;2023-07-08T02:41:37;95907.06;;;21.28;47.84
6218;BME280;3142;48.206;11.550;2023-07-08T02:44:03;95905.41;;;21.12;47.98
6218;BME280;3142;48.206;11.550;2023-07-08T02:46:30;95912.59;;;21.11;48.11
6218;BME280;3142;48.206;11.550;2023-07-08T02:48:58;95915.53;;;21.20;47.74
6218;BME280;3142;48.206;11.550;2023-07-08T02:51:24;95905.94;;;21.19;47.94
6218;BME280;3142;48.206;11.550;2023-07-08T02:53:50;95907.06;;;21.28;47.74
6218;BME280;3142;48.206;11.550;2023-07-08T02:56:17;95911.53;;;21.22;48.00
6218;BME280;3142;48.206;11.550;2023-07-08T02:58:43;95915.84;;;21.28;47.99
6218;BME280;3142;48.206;11.550;2023-07-08T03:01:10;95915.59;;;21.30;47.88
6218;BME280;3142;48.206;11.550;2023-07-08T03:03:36;95913.72;;;21.31;47.83
6218;BME280;3142;48.206;11.550;2023-07-08T03:06:04;95913.47;;;21.27;48.01
6218;BME280;3142;48.206;11.550;2023-07-08T03:08:31;95909.09;;;21.06;48.28
6218;BME280;3142;48.206;11.550;2023-07-08T03:11:00;95912.22;;;20.92;48.59
6218;BME280;3142;48.206;11.550;2023-07-08T03:13:27;95916.47;;;20.88;49.14
6218;BME280;3142;48.206;11.550;2023-07-08T03:15:55;95916.22;;;20.90;49.34
6218;BME280;3142;48.206;11.550;2023-07-08T03:18:22;95907.97;;;20.91;49.31
6218;BME280;3142;48.206;11.550;2023-07-08T03:20:49;95917.00;;;20.85;49.18
6218;BME280;3142;48.206;11.550;2023-07-08T03:23:17;95920.47;;;20.91;49.20
6218;BME280;3142;48.206;11.550;2023-07-08T03:25:44;95925.00;;;20.90;49.50
6218;BME280;3142;48.206;11.550;2023-07-08T03:28:10;95919.44;;;20.97;49.16
6218;BME280;3142;48.206;11.550;2023-07-08T03:30:40;95913.03;;;20.93;49.17
6218;BME280;3142;48.206;11.550;2023-07-08T03:33:06;95914.63;;;20.89;49.13
6218;BME280;3142;48.206;11.550;2023-07-08T03:35:33;95905.81;;;20.83;49.73
6218;BME280;3142;48.206;11.550;2023-07-08T03:37:59;95898.84;;;20.77;49.68
6218;BME280;3142;48.206;11.550;2023-07-08T03:40:27;95895.69;;;20.80;49.72
6218;BME280;3142;48.206;11.550;2023-07-08T03:42:53;95894.63;;;20.81;49.99
6218;BME280;3142;48.206;11.550;2023-07-08T03:45:20;95906.09;;;20.92;49.79
6218;BME280;3142;48.206;11.550;2023-07-08T03:47:46;95898.97;;;20.97;49.75
6218;BME280;3142;48.206;11.550;2023-07-08T03:50:17;95894.97;;;21.00;49.55
6218;BME280;3142;48.206;11.550;2023-07-08T03:52:44;95898.69;;;20.99;49.78
6218;BME280;3142;48.206;11.550;2023-07-08T03:55:11;95908.56;;;21.09;49.86
6218;BME280;3142;48.206;11.550;2023-07-08T03:57:39;95904.59;;;21.16;49.90
6218;BME280;3142;48.206;11.550;2023-07-08T04:00:07;95903.28;;;21.14;49.68
6218;BME280;3142;48.206;11.550;2023-07-08T04:02:34;95907.25;;;21.11;49.97
6218;BME280;3142;48.206;11.550;2023-07-08T04:05:01;95909.13;;;21.11;49.87
6218;BME280;3142;48.206;11.550;2023-07-08T04:07:27;95911.25;;;21.19;49.78
6218;BME280;3142;48.206;11.550;2023-07-08T04:09:54;95911.78;;;21.16;49.71
6218;BME280;3142;48.206;11.550;2023-07-08T04:12:20;95921.59;;;21.10;50.07
6218;BME280;3142;48.206;11.550;2023-07-08T04:14:48;95912.59;;;21.11;50.13
6218;BME280;3142;48.206;11.550;2023-07-08T04:17:15;95912.28;;;21.08;50.35
6218;BME280;3142;48.206;11.550;2023-07-08T04:19:43;95917.06;;;21.06;50.55
6218;BME280;3142;48.206;11.550;2023-07-08T04:22:10;95917.88;;;21.06;50.77
6218;BME280;3142;48.206;11.550;2023-07-08T04:24:36;95912.81;;;21.10;50.53
6218;BME280;3142;48.206;11.550;2023-07-08T04:27:04;95912.31;;;21.13;50.55
6218;BME280;3142;48.206;11.550;2023-07-08T04:29:30;95912.81;;;21.10;50.79
6218;BME280;3142;48.206;11.550;2023-07-08T04:31:58;95914.41;;;21.06;50.87
6218;BME280;3142;48.206;11.550;2023-07-08T04:34:25;95916.03;;;21.12;51.28
6218;BME280;3142;48.206;11.550;2023-07-08T04:36:51;95919.25;;;21.19;50.97
6218;BME280;3142;48.206;11.550;2023-07-08T04:39:18;95915.84;;;21.28;50.82
6218;BME280;3142;48.206;11.550;2023-07-08T04:41:44;95924.91;;;21.38;50.60
6218;BME280;3142;48.206;11.550;2023-07-08T04:44:11;95934.53;;;21.44;50.79
6218;BME280;3142;48.206;11.550;2023-07-08T04:46:39;95936.13;;;21.50;50.69
6218;BME280;3142;48.206;11.550;2023-07-08T04:49:08;95946.56;;;21.56;50.81
6218;BME280;3142;48.206;11.550;2023-07-08T04:51:35;95943.34;;;21.59;50.56
6218;BME280;3142;48.206;11.550;2023-07-08T04:54:02;95954.00;;;21.59;50.58
6218;BME280;3142;48.206;11.550;2023-07-08T04:56:36;95957.75;;;21.64;50.52
6218;BME280;3142;48.206;11.550;2023-07-08T04:59:03;95966.03;;;21.67;50.59
6218;BME280;3142;48.206;11.550;2023-07-08T05:01:30;95966.25;;;21.61;50.65
6218;BME280;3142;48.206;11.550;2023-07-08T05:03:56;95971.84;;;21.59;50.80
6218;BME280;3142;48.206;11.550;2023-07-08T05:06:24;95979.84;;;21.59;50.97
6218;BME280;3142;48.206;11.550;2023-07-08T05:08:51;95978.53;;;21.67;50.74
6218;BME280;3142;48.206;11.550;2023-07-08T05:11:17;95982.81;;;21.68;50.44
6218;BME280;3142;48.206;11.550;2023-07-08T05:13:43;95980.13;;;21.68;50.81
6218;BME280;3142;48.206;11.550;2023-07-08T05:16:10;95986.22;;;21.63;51.23
6218;BME280;3142;48.206;11.550;2023-07-08T05:18:36;95994.00;;;21.75;50.75
6218;BME280;3142;48.206;11.550;2023-07-08T05:21:03;95987.88;;;21.74;50.64
6218;BME280;3142;48.206;11.550;2023-07-08T05:23:31;95972.69;;;21.70;50.99
6218;BME280;3142;48.206;11.550;2023-07-08T05:25:59;95975.06;;;21.61;51.45
6218;BME280;3142;48.206;11.550;2023-07-08T05:28:26;95992.13;;;21.70;51.03
6218;BME280;3142;48.206;11.550;2023-07-08T05:30:53;95996.63;;;21.65;51.29
6218;BME280;3142;48.206;11.550;2023-07-08T05:33:20;95991.03;;;21.56;51.58
6218;BME280;3142;48.206;11.550;2023-07-08T05:35:47;95992.59;;;21.47;51.78
6218;BME280;3142;48.206;11.550;2023-07-08T05:38:13;95991.19;;;21.34;52.08
6218;BME280;3142;48.206;11.550;2023-07-08T05:40:41;95992.03;;;21.40;52.23
6218;BME280;3142;48.206;11.550;2023-07-08T05:43:08;95988.28;;;21.36;52.38
6218;BME280;3142;48.206;11.550;2023-07-08T05:45:34;95974.22;;;21.45;52.12
6218;BME280;3142;48.206;11.550;2023-07-08T05:48:01;95971.31;;;21.52;51.91
6218;BME280;3142;48.206;11.550;2023-07-08T05:50:28;95972.63;;;21.49;51.80
6218;BME280;3142;48.206;11.550;2023-07-08T05:52:54;95972.34;;;21.51;51.52
6218;BME280;3142;48.206;11.550;2023-07-08T05:55:20;95972.16;;;21.73;50.95
6218;BME280;3142;48.206;11.550;2023-07-08T05:57:48;95963.66;;;21.81;50.82
6218;BME280;3142;48.206;11.550;2023-07-08T06:00:15;95955.66;;;21.91;50.65
6218;BME280;3142;48.206;11.550;2023-07-08T06:02:41;95945.03;;;21.96;50.83
6218;BME280;3142;48.206;11.550;2023-07-08T06:05:08;95944.47;;;22.04;51.07
6218;BME280;3142;48.206;11.550;2023-07-08T06:07:34;95955.72;;;22.22;50.58
6218;BME280;3142;48.206;11.550;2023-07-08T06:10:01;95954.09;;;22.31;50.26
6218;BME280;3142;48.206;11.550;2023-07-08T06:12:28;95965.28;;;22.33;49.63
6218;BME280;3142;48.206;11.550;2023-07-08T06:14:56;95965.31;;;22.28;49.83
6218;BME280;3142;48.206;11.550;2023-07-08T06:17:23;95961.31;;;22.30;50.23
6218;BME280;3142;48.206;11.550;2023-07-08T06:19:49;95971.16;;;22.30;49.71
6218;BME280;3142;48.206;11.550;2023-07-08T06:22:16;95971.44;;;22.23;49.71
6218;BME280;3142;48.206;11.550;2023-07-08T06:24:42;95971.44;;;22.33;49.82
6218;BME280;3142;48.206;11.550;2023-07-08T06:27:09;95960.50;;;22.45;49.33
6218;BME280;3142;48.206;11.550;2023-07-08T06:29:36;95958.09;;;22.54;48.76
6218;BME280;3142;48.206;11.550;2023-07-08T06:32:05;95944.75;;;22.43;49.13
6218;BME280;3142;48.206;11.550;2023-07-08T06:34:32;95948.25;;;22.39;48.97
6218;BME280;3142;48.206;11.550;2023-07-08T06:36:59;95954.09;;;22.51;49.10
6218;BME280;3142;48.206;11.550;2023-07-08T06:39:25;95954.59;;;22.58;49.00
6218;BME280;3142;48.206;11.550;2023-07-08T06:41:51;95959.41;;;22.66;49.14
6218;BME280;3142;48.206;11.550;2023-07-08T06:44:18;95961.00;;;22.67;48.88
6218;BME280;3142;48.206;11.550;2023-07-08T06:46:45;95955.94;;;22.71;48.44
6218;BME280;3142;48.206;11.550;2023-07-08T06:49:12;95968.72;;;22.74;48.71
6218;BME280;3142;48.206;11.550;2023-07-08T06:51:39;95965.78;;;22.81;48.60
6218;BME280;3142;48.206;11.550;2023-07-08T06:54:05;95966.59;;;22.81;48.70
6218;BME280;3142;48.206;11.550;2023-07-08T06:56:36;95966.84;;;22.74;48.70
6218;BME280;3142;48.206;11.550;2023-07-08T06:59:03;95965.00;;;22.70;48.80
6218;BME280;3142;48.206;11.550;2023-07-08T07:01:29;95970.09;;;22.66;49.17
6218;BME280;3142;48.206;11.550;2023-07-08T07:03:55;95969.81;;;22.83;48.72
6218;BME280;3142;48.206;11.550;2023-07-08T07:06:23;95980.47;;;22.78;48.70
6218;BME280;3142;48.206;11.550;2023-07-08T07:08:50;95986.84;;;22.82;48.63
6218;BME280;3142;48.206;11.550;2023-07-08T07:11:16;95984.47;;;22.91;48.69
6218;BME280;3142;48.206;11.550;2023-07-08T07:13:44;95990.03;;;23.10;48.81
6218;BME280;3142;48.206;11.550;2023-07-08T07:16:10;95984.63;;;23.25;48.23
6218;BME280;3142;48.206;11.550;2023-07-08T07:18:37;95978.75;;;23.33;48.06
6218;BME280;3142;48.206;11.550;2023-07-08T07:21:03;95991.22;;;23.48;48.17
6218;BME280;3142;48.206;11.550;2023-07-08T07:23:31;95985.28;;;23.56;48.15
6218;BME280;3142;48.206;11.550;2023-07-08T07:25:57;95983.13;;;23.68;48.13
6218;BME280;3142;48.206;11.550;2023-07-08T07:28:24;95986.25;;;23.85;47.68
6218;BME280;3142;48.206;11.550;2023-07-08T07:30:56;95993.41;;;23.95;46.90
6218;BME280;3142;48.206;11.550;2023-07-08T07:33:23;95987.19;;;24.05;47.09
6218;BME280;3142;48.206;11.550;2023-07-08T07:35:49;95993.84;;;24.07;46.88
6218;BME280;3142;48.206;11.550;2023-07-08T07:38:16;95987.66;;;24.17;46.71
6218;BME280;3142;48.206;11.550;2023-07-08T07:40:44;95984.19;;;24.16;46.82
6218;BME280;3142;48.206;11.550;2023-07-08T07:43:11;95987.72;;;24.07;46.76
6218;BME280;3142;48.206;11.550;2023-07-08T07:45:37;95989.91;;;24.00;47.14
6218;BME280;3142;48.206;11.550;2023-07-08T07:48:04;95995.72;;;24.07;46.56
6218;BME280;3142;48.206;11.550;2023-07-08T07:50:31;96005.53;;;24.21;46.23
6218;BME280;3142;48.206;11.550;2023-07-08T07:52:57;96019.94;;;24.31;45.87
6218;BME280;3142;48.206;11.550;2023-07-08T07:55:24;96014.81;;;24.34;45.64
6218;BME280;3142;48.206;11.550;2023-07-08T07:57:52;96025.75;;;24.38;45.60
6218;BME280;3142;48.206;11.550;2023-07-08T08:00:18;96032.34;;;24.50;45.22
6218;BME280;3142;48.206;11.550;2023-07-08T08:02:45;96028.31;;;24.53;45.45
6218;BME280;3142;48.206;11.550;2023-07-08T08:05:11;96044.91;;;24.55;45.63
6218;BME280;3142;48.206;11.550;2023-07-08T08:07:38;96051.81;;;24.61;45.63
6218;BME280;3142;48.206;11.550;2023-07-08T08:10:06;96048.84;;;24.63;45.88
6218;BME280;3142;48.206;11.550;2023-07-08T08:12:32;96044.34;;;24.58;45.89
6218;BME280;3142;48.206;11.550;2023-07-08T08:15:00;96064.72;;;24.54;45.66
6218;BME280;3142;48.206;11.550;2023-07-08T08:17:27;96055.63;;;24.55;46.21
6218;BME280;3142;48.206;11.550;2023-07-08T08:19:53;96057.69;;;24.63;45.84
6218;BME280;3142;48.206;11.550;2023-07-08T08:22:19;96067.50;;;24.73;46.19
6218;BME280;3142;48.206;11.550;2023-07-08T08:24:46;96069.66;;;24.71;45.88
6218;BME280;3142;48.206;11.550;2023-07-08T08:27:13;96066.19;;;24.70;46.24
6218;BME280;3142;48.206;11.550;2023-07-08T08:29:39;96079.31;;;24.67;46.21
6218;BME280;3142;48.206;11.550;2023-07-08T08:32:07;96083.50;;;24.83;45.72
6218;BME280;3142;48.206;11.550;2023-07-08T08:34:34;96080.97;;;24.97;46.08
6218;BME280;3142;48.206;11.550;2023-07-08T08:37:00;96077.22;;;24.98;46.01
6218;BME280;3142;48.206;11.550;2023-07-08T08:39:27;96077.72;;;25.00;46.01
6218;BME280;3142;48.206;11.550;2023-07-08T08:41:54;96080.19;;;24.91;45.94
6218;BME280;3142;48.206;11.550;2023-07-08T08:44:26;96075.91;;;24.90;45.71
6218;BME280;3142;48.206;11.550;2023-07-08T08:46:57;96064.63;;;24.98;45.90
6218;BME280;3142;48.206;11.550;2023-07-08T08:49:32;96070.06;;;25.17;45.89
6218;BME280;3142;48.206;11.550;2023-07-08T08:52:01;96067.13;;;25.43;44.53
6218;BME280;3142;48.206;11.550;2023-07-08T08:54:29;96075.81;;;25.58;43.85
6218;BME280;3142;48.206;11.550;2023-07-08T08:57:00;96070.31;;;25.45;44.03
6218;BME280;3142;48.206;11.550;2023-07-08T08:59:38;96083.88;;;25.29;44.59
6218;BME280;3142;48.206;11.550;2023-07-08T09:02:27;96083.47;;;25.17;44.99
6218;BME280;3142;48.206;11.550;2023-07-08T09:05:02;96075.41;;;25.22;44.95
6218;BME280;3142;48.206;11.550;2023-07-08T09:07:33;96075.66;;;25.21;45.15
6218;BME280;3142;48.206;11.550;2023-07-08T09:10:08;96072.94;;;25.26;45.20
6218;BME280;3142;48.206;11.550;2023-07-08T09:12:35;96072.38;;;25.29;45.36
6218;BME280;3142;48.206;11.550;2023-07-08T09:15:11;96069.91;;;25.32;45.14
6218;BME280;3142;48.206;11.550;2023-07-08T09:17:38;96079.00;;;25.36;45.21
6218;BME280;3142;48.206;11.550;2023-07-08T09:20:17;96083.22;;;25.43;45.37
6218;BME280;3142;48.206;11.550;2023-07-08T09:22:52;96083.03;;;25.58;45.14
6218;BME280;3142;48.206;11.550;2023-07-08T09:25:25;96078.94;;;25.89;44.24
6218;BME280;3142;48.206;11.550;2023-07-08T09:27:54;96077.22;;;25.98;43.89
6218;BME280;3142;48.206;11.550;2023-07-08T09:30:22;96082.38;;;25.95;44.11
6218;BME280;3142;48.206;11.550;2023-07-08T09:32:50;96091.50;;;25.94;44.11
6218;BME280;3142;48.206;11.550;2023-07-08T09:35:20;96089.25;;;26.01;43.86
6218;BME280;3142;48.206;11.550;2023-07-08T09:37:48;96086.19;;;26.32;42.97
6218;BME280;3142;48.206;11.550;2023-07-08T09:40:16;96077.19;;;26.60;41.86
6218;BME280;3142;48.206;11.550;2023-07-08T09:42:46;96079.00;;;26.65;42.92
6218;BME280;3142;48.206;11.550;2023-07-08T09:45:14;96080.81;;;26.50;45.41
6218;BME280;3142;48.206;11.550;2023-07-08T09:47:43;96082.38;;;26.14;44.03
6218;BME280;3142;48.206;11.550;2023-07-08T09:50:19;96074.38;;;25.90;44.21
6218;BME280;3142;48.206;11.550;2023-07-08T09:52:46;96080.38;;;25.82;44.59
6218;BME280;3142;48.206;11.550;2023-07-08T09:55:14;96073.31;;;25.91;44.59
6218;BME280;3142;48.206;11.550;2023-07-08T09:57:40;96070.09;;;25.89;44.91
6218;BME280;3142;48.206;11.550;2023-07-08T10:00:12;96069.53;;;25.92;44.88
6218;BME280;3142;48.206;11.550;2023-07-08T10:02:40;96068.88;;;26.00;44.72
6218;BME280;3142;48.206;11.550;2023-07-08T10:05:14;96069.63;;;26.24;44.54
6218;BME280;3142;48.206;11.550;2023-07-08T10:07:42;96080.72;;;26.55;43.42
6218;BME280;3142;48.206;11.550;2023-07-08T10:10:15;96081.63;;;26.83;42.77
6218;BME280;3142;48.206;11.550;2023-07-08T10:12:52;96072.81;;;27.15;42.47
6218;BME280;3142;48.206;11.550;2023-07-08T10:15:23;96084.88;;;27.32;41.92
6218;BME280;3142;48.206;11.550;2023-07-08T10:17:50;96078.31;;;27.52;40.77
6218;BME280;3142;48.206;11.550;2023-07-08T10:20:18;96081.53;;;27.67;40.62
6218;BME280;3142;48.206;11.550;2023-07-08T10:22:57;96087.31;;;27.88;39.85
6218;BME280;3142;48.206;11.550;2023-07-08T10:25:31;96090.34;;;28.09;39.32
6218;BME280;3142;48.206;11.550;2023-07-08T10:28:10;96087.44;;;28.19;38.90
6218;BME280;3142;48.206;11.550;2023-07-08T10:30:44;96094.91;;;28.36;38.59
6218;BME280;3142;48.206;11.550;2023-07-08T10:33:32;96097.16;;;28.56;38.52
6218;BME280;3142;48.206;11.550;2023-07-08T10:36:17;96090.91;;;28.70;38.04
6218;BME280;3142;48.206;11.550;2023-07-08T10:39:10;96090.50;;;28.99;38.05
6218;BME280;3142;48.206;11.550;2023-07-08T10:41:49;96087.91;;;29.16;37.60
6218;BME280;3142;48.206;11.550;2023-07-08T10:44:22;96091.16;;;29.27;37.92
6218;BME280;3142;48.206;11.550;2023-07-08T10:46:59;96085.59;;;29.23;38.01
6218;BME280;3142;48.206;11.550;2023-07-08T10:49:49;96085.97;;;29.39;37.91
6218;BME280;3142;48.206;11.550;2023-07-08T10:52:31;96094.56;;;29.10;38.11
6218;BME280;3142;48.206;11.550;2023-07-08T10:55:27;96082.91;;;29.23;37.01
6218;BME280;3142;48.206;11.550;2023-07-08T10:58:16;96089.97;;;29.19;37.73
6218;BME280;3142;48.206;11.550;2023-07-08T11:00:56;96086.63;;;29.13;38.20
6218;BME280;3142;48.206;11.550;2023-07-08T11:03:46;96074.66;;;29.28;38.12
6218;BME280;3142;48.206;11.550;2023-07-08T11:06:19;96077.34;;;29.59;38.05
6218;BME280;3142;48.206;11.550;2023-07-08T11:08:50;96076.91;;;30.05;36.85
6218;BME280;3142;48.206;11.550;2023-07-08T11:11:29;96077.69;;;30.15;36.46
6218;BME280;3142;48.206;11.550;2023-07-08T11:14:04;96069.88;;;30.04;36.14
6218;BME280;3142;48.206;11.550;2023-07-08T11:16:39;96085.88;;;29.92;36.31
6218;BME280;3142;48.206;11.550;2023-07-08T11:19:11;96077.97;;;30.04;35.59
6218;BME280;3142;48.206;11.550;2023-07-08T11:21:41;96072.31;;;30.23;35.32
6218;BME280;3142;48.206;11.550;2023-07-08T11:24:16;96080.75;;;30.30;35.82
6218;BME280;3142;48.206;11.550;2023-07-08T11:26:50;96075.81;;;30.41;34.86
6218;BME280;3142;48.206;11.550;2023-07-08T11:29:21;96073.13;;;30.50;34.59
6218;BME280;3142;48.206;11.550;2023-07-08T11:31:49;96072.16;;;30.46;33.94
6218;BME280;3142;48.206;11.550;2023-07-08T11:34:17;96070.88;;;30.17;34.02
6218;BME280;3142;48.206;11.550;2023-07-08T11:36:45;96072.47;;;30.18;33.94
6218;BME280;3142;48.206;11.550;2023-07-08T11:39:32;96074.41;;;30.44;33.06
6218;BME280;3142;48.206;11.550;2023-07-08T11:42:15;96065.34;;;30.57;33.36
6218;BME280;3142;48.206;11.550;2023-07-08T11:44:44;96065.34;;;30.48;33.21
6218;BME280;3142;48.206;11.550;2023-07-08T11:47:17;96064.09;;;30.72;32.07
6218;BME280;3142;48.206;11.550;2023-07-08T11:49:46;96053.72;;;31.00;32.12
6218;BME280;3142;48.206;11.550;2023-07-08T11:52:16;96053.50;;;31.13;31.15
6218;BME280;3142;48.206;11.550;2023-07-08T11:54:45;96049.53;;;31.19;29.74
6218;BME280;3142;48.206;11.550;2023-07-08T11:57:19;96058.59;;;31.15;30.04
6218;BME280;3142;48.206;11.550;2023-07-08T12:00:06;96047.63;;;31.20;30.38
6218;BME280;3142;48.206;11.550;2023-07-08T12:02:48;96048.25;;;31.26;29.93
6218;BME280;3142;48.206;11.550;2023-07-08T12:05:16;96044.91;;;31.20;30.59
6218;BME280;3142;48.206;11.550;2023-07-08T12:07:45;96044.13;;;31.19;31.29
6218;BME280;3142;48.206;11.550;2023-07-08T12:10:16;96036.31;;;31.27;32.11
6218;BME280;3142;48.206;11.550;2023-07-08T12:12:45;96042.00;;;31.34;31.52
6218;BME280;3142;48.206;11.550;2023-07-08T12:15:17;96036.13;;;31.32;30.92
6218;BME280;3142;48.206;11.550;2023-07-08T12:17:47;96045.63;;;31.38;30.86
6218;BME280;3142;48.206;11.550;2023-07-08T12:20:20;96041.19;;;31.42;31.16
6218;BME280;3142;48.206;11.550;2023-07-08T12:22:48;96032.59;;;31.40;31.18
6218;BME280;3142;48.206;11.550;2023-07-08T12:25:16;96025.19;;;31.28;31.51
6218;BME280;3142;48.206;11.550;2023-07-08T12:27:45;96033.72;;;30.75;34.82
6218;BME280;3142;48.206;11.550;2023-07-08T12:30:13;96034.19;;;30.42;34.04
6218;BME280;3142;48.206;11.550;2023-07-08T12:32:41;96035.72;;;30.00;33.02
6218;BME280;3142;48.206;11.550;2023-07-08T12:35:18;96032.28;;;29.60;33.12
6218;BME280;3142;48.206;11.550;2023-07-08T12:37:45;96029.94;;;29.67;32.41
6218;BME280;3142;48.206;11.550;2023-07-08T12:40:13;96032.91;;;29.48;33.56
6218;BME280;3142;48.206;11.550;2023-07-08T12:42:40;96024.75;;;29.39;31.40
6218;BME280;3142;48.206;11.550;2023-07-08T12:45:13;96026.66;;;29.39;31.05
6218;BME280;3142;48.206;11.550;2023-07-08T12:47:40;96021.88;;;29.36;32.40
6218;BME280;3142;48.206;11.550;2023-07-08T12:50:08;96024.00;;;29.16;33.18
6218;BME280;3142;48.206;11.550;2023-07-08T12:52:35;96022.41;;;29.07;33.67
6218;BME280;3142;48.206;11.550;2023-07-08T12:55:01;96020.63;;;29.02;32.82
6218;BME280;3142;48.206;11.550;2023-07-08T12:57:28;96016.47;;;28.96;32.03
6218;BME280;3142;48.206;11.550;2023-07-08T12:59:55;96022.50;;;29.02;32.19
6218;BME280;3142;48.206;11.550;2023-07-08T13:02:25;96025.84;;;28.99;32.35
6218;BME280;3142;48.206;11.550;2023-07-08T13:04:57;96025.34;;;28.97;32.01
6218;BME280;3142;48.206;11.550;2023-07-08T13:07:32;96022.78;;;28.91;32.51
6218;BME280;3142;48.206;11.550;2023-07-08T13:10:00;96028.38;;;29.04;31.16
6218;BME280;3142;48.206;11.550;2023-07-08T13:12:29;96029.47;;;28.94;31.28
6218;BME280;3142;48.206;11.550;2023-07-08T13:14:58;96030.91;;;28.78;30.85
6218;BME280;3142;48.206;11.550;2023-07-08T13:17:27;96028.47;;;28.68;30.96
6218;BME280;3142;48.206;11.550;2023-07-08T13:19:54;96027.47;;;28.63;31.26